sensor_id;sensor_type;location;lat;lon;timestamp;P1;durP1;ratioP1;P2;durP2;ratioP2
16484;SDS011;8353;47.856;12.344;2023-02-10T00:00:50;5.90;;;3.80;;
16484;SDS011;8353;47.856;12.344;2023-02-10T00:03:21;4.60;;;3.50;;
16484;SDS011;8353;47.856;12.344;2023-02-10T00:05:51;4.57;;;3.53;;
16484;SDS011;8353;47.856;12.344;2023-02-10T00:08:25;6.43;;;4.20;;
16484;SDS011;8353;47.856;12.344;2023-02-10T00:10:56;5.23;;;3.77;;
16484;SDS011;8353;47.856;12.344;2023-02-10T00:13:27;9.23;;;4.90;;
16484;SDS011;8353;47.856;12.344;2023-02-10T00:15:58;5.10;;;3.73;;
16484;SDS011;8353;47.856;12.344;2023-02-10T00:18:31;7.03;;;4.13;;
16484;SDS011;8353;47.856;12.344;2023-02-10T00:21:05;7.70;;;4.73;;
16484;SDS011;8353;47.856;12.344;2023-02-10T00:23:37;5.90;;;3.70;;
16484;SDS011;8353;47.856;12.344;2023-02-10T00:26:10;4.73;;;3.57;;
16484;SDS011;8353;47.856;12.344;2023-02-10T00:28:43;7.77;;;5.23;;
16484;SDS011;8353;47.856;12.344;2023-02-10T00:31:14;5.80;;;4.50;;
16484;SDS011;8353;47.856;12.344;2023-02-10T00:33:47;5.77;;;3.70;;
16484;SDS011;8353;47.856;12.344;2023-02-10T00:36:18;5.97;;;3.80;;
16484;SDS011;8353;47.856;12.344;2023-02-10T00:38:51;4.40;;;3.40;;
16484;SDS011;8353;47.856;12.344;2023-02-10T00:41:23;5.10;;;3.63;;
16484;SDS011;8353;47.856;12.344;2023-02-10T00:43:53;5.30;;;3.80;;
16484;SDS011;8353;47.856;12.344;2023-02-10T00:46:24;5.43;;;3.77;;
16484;SDS011;8353;47.856;12.344;2023-02-10T00:48:54;4.03;;;3.57;;
16484;SDS011;8353;47.856;12.344;2023-02-10T00:51:24;5.83;;;3.97;;
16484;SDS011;8353;47.856;12.344;2023-02-10T00:53:56;4.37;;;3.63;;
16484;SDS011;8353;47.856;12.344;2023-02-10T00:56:27;4.63;;;3.60;;
16484;SDS011;8353;47.856;12.344;2023-02-10T00:58:57;5.40;;;3.77;;
16484;SDS011;8353;47.856;12.344;2023-02-10T01:01:28;7.27;;;4.10;;
16484;SDS011;8353;47.856;12.344;2023-02-10T01:03:58;4.33;;;3.43;;
16484;SDS011;8353;47.856;12.344;2023-02-10T01:06:29;4.97;;;3.80;;
16484;SDS011;8353;47.856;12.344;2023-02-10T01:09:01;6.17;;;3.23;;
16484;SDS011;8353;47.856;12.344;2023-02-10T01:11:32;5.57;;;3.83;;
16484;SDS011;8353;47.856;12.344;2023-02-10T01:14:03;4.40;;;3.40;;
16484;SDS011;8353;47.856;12.344;2023-02-10T01:16:33;6.30;;;3.80;;
16484;SDS011;8353;47.856;12.344;2023-02-10T01:19:03;4.30;;;3.23;;
16484;SDS011;8353;47.856;12.344;2023-02-10T01:21:34;5.73;;;3.33;;
16484;SDS011;8353;47.856;12.344;2023-02-10T01:24:08;5.43;;;3.47;;
16484;SDS011;8353;47.856;12.344;2023-02-10T01:26:39;6.47;;;3.73;;
16484;SDS011;8353;47.856;12.344;2023-02-10T01:29:09;6.27;;;4.30;;
16484;SDS011;8353;47.856;12.344;2023-02-10T01:31:40;5.60;;;3.67;;
16484;SDS011;8353;47.856;12.344;2023-02-10T01:34:10;4.10;;;2.93;;
16484;SDS011;8353;47.856;12.344;2023-02-10T01:36:41;3.87;;;3.20;;
16484;SDS011;8353;47.856;12.344;2023-02-10T01:39:13;4.40;;;3.10;;
16484;SDS011;8353;47.856;12.344;2023-02-10T01:41:45;3.47;;;2.60;;
16484;SDS011;8353;47.856;12.344;2023-02-10T01:47:24;5.13;;;3.40;;
16484;SDS011;8353;47.856;12.344;2023-02-10T01:49:55;4.70;;;3.17;;
16484;SDS011;8353;47.856;12.344;2023-02-10T01:52:25;5.17;;;3.63;;
16484;SDS011;8353;47.856;12.344;2023-02-10T01:55:00;5.27;;;3.50;;
16484;SDS011;8353;47.856;12.344;2023-02-10T01:57:34;3.93;;;2.90;;
16484;SDS011;8353;47.856;12.344;2023-02-10T02:00:07;5.83;;;3.30;;
16484;SDS011;8353;47.856;12.344;2023-02-10T02:02:39;4.33;;;2.83;;
16484;SDS011;8353;47.856;12.344;2023-02-10T02:05:27;4.73;;;3.87;;
16484;SDS011;8353;47.856;12.344;2023-02-10T02:08:01;4.77;;;3.33;;
16484;SDS011;8353;47.856;12.344;2023-02-10T02:10:41;4.73;;;3.13;;
16484;SDS011;8353;47.856;12.344;2023-02-10T02:13:23;4.13;;;3.27;;
16484;SDS011;8353;47.856;12.344;2023-02-10T02:16:03;4.50;;;3.23;;
16484;SDS011;8353;47.856;12.344;2023-02-10T02:18:43;4.23;;;3.13;;
16484;SDS011;8353;47.856;12.344;2023-02-10T02:21:39;3.53;;;2.80;;
16484;SDS011;8353;47.856;12.344;2023-02-10T02:24:30;4.50;;;3.33;;
16484;SDS011;8353;47.856;12.344;2023-02-10T02:27:18;4.27;;;2.93;;
16484;SDS011;8353;47.856;12.344;2023-02-10T02:33:13;5.03;;;3.23;;
16484;SDS011;8353;47.856;12.344;2023-02-10T02:35:47;2.60;;;2.20;;
16484;SDS011;8353;47.856;12.344;2023-02-10T02:38:21;3.30;;;2.60;;
16484;SDS011;8353;47.856;12.344;2023-02-10T02:40:52;3.97;;;2.90;;
16484;SDS011;8353;47.856;12.344;2023-02-10T02:43:24;3.97;;;3.10;;
16484;SDS011;8353;47.856;12.344;2023-02-10T02:45:55;3.93;;;2.93;;
16484;SDS011;8353;47.856;12.344;2023-02-10T02:48:36;4.70;;;2.87;;
16484;SDS011;8353;47.856;12.344;2023-02-10T02:51:16;4.67;;;2.87;;
16484;SDS011;8353;47.856;12.344;2023-02-10T02:53:54;4.03;;;2.77;;
16484;SDS011;8353;47.856;12.344;2023-02-10T02:56:32;5.50;;;4.03;;
16484;SDS011;8353;47.856;12.344;2023-02-10T02:59:10;8.83;;;4.20;;
16484;SDS011;8353;47.856;12.344;2023-02-10T03:01:49;4.20;;;3.00;;
16484;SDS011;8353;47.856;12.344;2023-02-10T03:04:25;4.80;;;3.50;;
16484;SDS011;8353;47.856;12.344;2023-02-10T03:06:58;3.23;;;2.67;;
16484;SDS011;8353;47.856;12.344;2023-02-10T03:09:28;3.20;;;2.77;;
16484;SDS011;8353;47.856;12.344;2023-02-10T03:11:59;3.93;;;2.83;;
16484;SDS011;8353;47.856;12.344;2023-02-10T03:14:30;5.27;;;3.40;;
16484;SDS011;8353;47.856;12.344;2023-02-10T03:17:00;4.13;;;3.07;;
16484;SDS011;8353;47.856;12.344;2023-02-10T03:19:32;5.93;;;3.30;;
16484;SDS011;8353;47.856;12.344;2023-02-10T03:22:05;4.27;;;3.23;;
16484;SDS011;8353;47.856;12.344;2023-02-10T03:24:35;3.83;;;2.93;;
16484;SDS011;8353;47.856;12.344;2023-02-10T03:27:07;5.73;;;3.73;;
16484;SDS011;8353;47.856;12.344;2023-02-10T03:29:38;4.63;;;3.30;;
16484;SDS011;8353;47.856;12.344;2023-02-10T03:32:09;4.67;;;3.33;;
16484;SDS011;8353;47.856;12.344;2023-02-10T03:34:41;4.97;;;3.47;;
16484;SDS011;8353;47.856;12.344;2023-02-10T03:37:11;4.93;;;2.40;;
16484;SDS011;8353;47.856;12.344;2023-02-10T03:39:42;4.20;;;2.80;;
16484;SDS011;8353;47.856;12.344;2023-02-10T03:42:13;4.07;;;3.10;;
16484;SDS011;8353;47.856;12.344;2023-02-10T03:44:43;4.20;;;3.27;;
16484;SDS011;8353;47.856;12.344;2023-02-10T03:47:14;3.17;;;2.50;;
16484;SDS011;8353;47.856;12.344;2023-02-10T03:49:46;4.40;;;2.90;;
16484;SDS011;8353;47.856;12.344;2023-02-10T03:52:17;3.50;;;2.73;;
16484;SDS011;8353;47.856;12.344;2023-02-10T03:54:47;5.47;;;4.17;;
16484;SDS011;8353;47.856;12.344;2023-02-10T03:57:18;3.30;;;2.83;;
16484;SDS011;8353;47.856;12.344;2023-02-10T03:59:49;6.63;;;3.33;;
16484;SDS011;8353;47.856;12.344;2023-02-10T04:02:19;3.57;;;2.83;;
16484;SDS011;8353;47.856;12.344;2023-02-10T04:04:51;4.07;;;3.10;;
16484;SDS011;8353;47.856;12.344;2023-02-10T04:07:22;3.67;;;2.70;;
16484;SDS011;8353;47.856;12.344;2023-02-10T04:09:52;4.37;;;3.17;;
16484;SDS011;8353;47.856;12.344;2023-02-10T04:12:23;2.87;;;2.50;;
16484;SDS011;8353;47.856;12.344;2023-02-10T04:14:54;3.90;;;2.67;;
16484;SDS011;8353;47.856;12.344;2023-02-10T04:17:25;3.70;;;3.00;;
16484;SDS011;8353;47.856;12.344;2023-02-10T04:19:57;7.13;;;3.57;;
16484;SDS011;8353;47.856;12.344;2023-02-10T04:22:28;4.87;;;3.30;;
16484;SDS011;8353;47.856;12.344;2023-02-10T04:24:58;4.27;;;3.10;;
16484;SDS011;8353;47.856;12.344;2023-02-10T04:27:29;6.03;;;3.60;;
16484;SDS011;8353;47.856;12.344;2023-02-10T04:29:59;3.23;;;2.30;;
16484;SDS011;8353;47.856;12.344;2023-02-10T04:32:30;3.77;;;3.07;;
16484;SDS011;8353;47.856;12.344;2023-02-10T04:35:02;4.60;;;3.00;;
16484;SDS011;8353;47.856;12.344;2023-02-10T04:37:33;3.63;;;2.57;;
16484;SDS011;8353;47.856;12.344;2023-02-10T04:40:03;4.27;;;2.80;;
16484;SDS011;8353;47.856;12.344;2023-02-10T04:42:34;6.53;;;4.57;;
16484;SDS011;8353;47.856;12.344;2023-02-10T04:45:05;3.90;;;3.10;;
16484;SDS011;8353;47.856;12.344;2023-02-10T04:47:36;6.13;;;3.30;;
16484;SDS011;8353;47.856;12.344;2023-02-10T04:50:08;4.77;;;3.33;;
16484;SDS011;8353;47.856;12.344;2023-02-10T04:52:39;5.70;;;3.70;;
16484;SDS011;8353;47.856;12.344;2023-02-10T04:55:10;5.10;;;3.30;;
16484;SDS011;8353;47.856;12.344;2023-02-10T04:57:41;4.60;;;2.90;;
16484;SDS011;8353;47.856;12.344;2023-02-10T05:00:12;7.27;;;3.47;;
16484;SDS011;8353;47.856;12.344;2023-02-10T05:02:43;8.47;;;4.97;;
16484;SDS011;8353;47.856;12.344;2023-02-10T05:05:15;7.50;;;5.43;;
16484;SDS011;8353;47.856;12.344;2023-02-10T05:07:45;6.80;;;4.03;;
16484;SDS011;8353;47.856;12.344;2023-02-10T05:10:15;4.50;;;3.43;;
16484;SDS011;8353;47.856;12.344;2023-02-10T05:12:46;10.60;;;3.67;;
16484;SDS011;8353;47.856;12.344;2023-02-10T05:15:17;3.60;;;2.83;;
16484;SDS011;8353;47.856;12.344;2023-02-10T05:17:47;5.63;;;4.07;;
16484;SDS011;8353;47.856;12.344;2023-02-10T05:20:19;5.10;;;3.20;;
16484;SDS011;8353;47.856;12.344;2023-02-10T05:22:50;4.13;;;3.23;;
16484;SDS011;8353;47.856;12.344;2023-02-10T05:25:20;5.43;;;3.00;;
16484;SDS011;8353;47.856;12.344;2023-02-10T05:27:50;5.17;;;3.53;;
16484;SDS011;8353;47.856;12.344;2023-02-10T05:30:21;6.10;;;3.97;;
16484;SDS011;8353;47.856;12.344;2023-02-10T05:32:52;3.90;;;3.03;;
16484;SDS011;8353;47.856;12.344;2023-02-10T05:35:24;5.43;;;3.37;;
16484;SDS011;8353;47.856;12.344;2023-02-10T05:37:55;6.10;;;3.67;;
16484;SDS011;8353;47.856;12.344;2023-02-10T05:40:25;6.63;;;4.17;;
16484;SDS011;8353;47.856;12.344;2023-02-10T05:42:56;6.50;;;4.13;;
16484;SDS011;8353;47.856;12.344;2023-02-10T05:45:26;8.00;;;5.17;;
16484;SDS011;8353;47.856;12.344;2023-02-10T05:47:57;5.20;;;4.13;;
16484;SDS011;8353;47.856;12.344;2023-02-10T05:50:29;11.87;;;5.97;;
16484;SDS011;8353;47.856;12.344;2023-02-10T05:53:00;8.30;;;4.40;;
16484;SDS011;8353;47.856;12.344;2023-02-10T05:55:31;6.10;;;3.80;;
16484;SDS011;8353;47.856;12.344;2023-02-10T05:58:01;5.67;;;3.43;;
16484;SDS011;8353;47.856;12.344;2023-02-10T06:00:32;5.77;;;3.43;;
16484;SDS011;8353;47.856;12.344;2023-02-10T06:03:02;6.77;;;3.87;;
16484;SDS011;8353;47.856;12.344;2023-02-10T06:05:34;4.93;;;3.40;;
16484;SDS011;8353;47.856;12.344;2023-02-10T06:08:05;10.33;;;4.47;;
16484;SDS011;8353;47.856;12.344;2023-02-10T06:10:36;7.90;;;3.60;;
16484;SDS011;8353;47.856;12.344;2023-02-10T06:13:07;8.07;;;4.60;;
16484;SDS011;8353;47.856;12.344;2023-02-10T06:15:37;5.60;;;3.50;;
16484;SDS011;8353;47.856;12.344;2023-02-10T06:18:08;5.37;;;4.27;;
16484;SDS011;8353;47.856;12.344;2023-02-10T06:20:39;7.47;;;4.63;;
16484;SDS011;8353;47.856;12.344;2023-02-10T06:23:10;11.10;;;5.13;;
16484;SDS011;8353;47.856;12.344;2023-02-10T06:25:41;8.33;;;4.53;;
16484;SDS011;8353;47.856;12.344;2023-02-10T06:28:12;24.50;;;14.37;;
16484;SDS011;8353;47.856;12.344;2023-02-10T06:30:43;8.10;;;4.30;;
16484;SDS011;8353;47.856;12.344;2023-02-10T06:33:13;6.70;;;3.47;;
16484;SDS011;8353;47.856;12.344;2023-02-10T06:35:45;7.17;;;4.60;;
16484;SDS011;8353;47.856;12.344;2023-02-10T06:38:17;4.83;;;3.60;;
16484;SDS011;8353;47.856;12.344;2023-02-10T06:40:48;6.77;;;4.97;;
16484;SDS011;8353;47.856;12.344;2023-02-10T06:43:18;8.33;;;3.33;;
16484;SDS011;8353;47.856;12.344;2023-02-10T06:45:48;6.67;;;3.57;;
16484;SDS011;8353;47.856;12.344;2023-02-10T06:48:19;5.60;;;4.03;;
16484;SDS011;8353;47.856;12.344;2023-02-10T06:50:51;5.30;;;3.07;;
16484;SDS011;8353;47.856;12.344;2023-02-10T06:53:22;5.23;;;3.37;;
16484;SDS011;8353;47.856;12.344;2023-02-10T06:55:55;12.13;;;7.00;;
16484;SDS011;8353;47.856;12.344;2023-02-10T06:58:26;6.60;;;3.97;;
16484;SDS011;8353;47.856;12.344;2023-02-10T07:00:57;6.07;;;3.33;;
16484;SDS011;8353;47.856;12.344;2023-02-10T07:03:29;6.63;;;4.37;;
16484;SDS011;8353;47.856;12.344;2023-02-10T07:06:00;10.70;;;7.13;;
16484;SDS011;8353;47.856;12.344;2023-02-10T07:08:31;5.37;;;3.87;;
16484;SDS011;8353;47.856;12.344;2023-02-10T07:11:02;7.83;;;4.70;;
16484;SDS011;8353;47.856;12.344;2023-02-10T07:13:32;10.10;;;6.70;;
16484;SDS011;8353;47.856;12.344;2023-02-10T07:16:03;7.93;;;5.10;;
16484;SDS011;8353;47.856;12.344;2023-02-10T07:18:33;7.90;;;4.27;;
16484;SDS011;8353;47.856;12.344;2023-02-10T07:21:05;6.20;;;4.13;;
16484;SDS011;8353;47.856;12.344;2023-02-10T07:23:36;18.63;;;11.60;;
16484;SDS011;8353;47.856;12.344;2023-02-10T07:26:07;9.07;;;5.40;;
16484;SDS011;8353;47.856;12.344;2023-02-10T07:28:39;7.50;;;5.30;;
16484;SDS011;8353;47.856;12.344;2023-02-10T07:31:10;6.77;;;4.13;;
16484;SDS011;8353;47.856;12.344;2023-02-10T07:33:41;6.17;;;4.50;;
16484;SDS011;8353;47.856;12.344;2023-02-10T07:36:13;8.47;;;5.53;;
16484;SDS011;8353;47.856;12.344;2023-02-10T07:38:44;12.13;;;6.93;;
16484;SDS011;8353;47.856;12.344;2023-02-10T07:41:14;7.50;;;5.00;;
16484;SDS011;8353;47.856;12.344;2023-02-10T07:43:45;6.53;;;4.30;;
16484;SDS011;8353;47.856;12.344;2023-02-10T07:46:16;14.67;;;6.53;;
16484;SDS011;8353;47.856;12.344;2023-02-10T07:48:46;16.23;;;7.83;;
16484;SDS011;8353;47.856;12.344;2023-02-10T07:51:19;9.33;;;5.70;;
16484;SDS011;8353;47.856;12.344;2023-02-10T07:53:49;11.33;;;4.77;;
16484;SDS011;8353;47.856;12.344;2023-02-10T07:56:20;8.07;;;5.17;;
16484;SDS011;8353;47.856;12.344;2023-02-10T07:58:51;5.30;;;3.70;;
16484;SDS011;8353;47.856;12.344;2023-02-10T08:01:22;8.17;;;4.43;;
16484;SDS011;8353;47.856;12.344;2023-02-10T08:03:53;8.67;;;5.10;;
16484;SDS011;8353;47.856;12.344;2023-02-10T08:06:26;5.80;;;4.13;;
16484;SDS011;8353;47.856;12.344;2023-02-10T08:08:57;7.90;;;5.20;;
16484;SDS011;8353;47.856;12.344;2023-02-10T08:11:27;8.00;;;4.93;;
16484;SDS011;8353;47.856;12.344;2023-02-10T08:13:58;12.30;;;5.20;;
16484;SDS011;8353;47.856;12.344;2023-02-10T08:16:30;13.77;;;5.73;;
16484;SDS011;8353;47.856;12.344;2023-02-10T08:19:00;12.87;;;5.27;;
16484;SDS011;8353;47.856;12.344;2023-02-10T08:21:32;8.13;;;5.37;;
16484;SDS011;8353;47.856;12.344;2023-02-10T08:24:03;7.67;;;5.30;;
16484;SDS011;8353;47.856;12.344;2023-02-10T08:26:34;5.77;;;4.03;;
16484;SDS011;8353;47.856;12.344;2023-02-10T08:29:04;6.90;;;3.67;;
16484;SDS011;8353;47.856;12.344;2023-02-10T08:31:35;10.40;;;4.70;;
16484;SDS011;8353;47.856;12.344;2023-02-10T08:34:10;10.40;;;6.00;;
16484;SDS011;8353;47.856;12.344;2023-02-10T08:36:45;9.60;;;5.37;;
16484;SDS011;8353;47.856;12.344;2023-02-10T08:39:16;11.20;;;6.30;;
16484;SDS011;8353;47.856;12.344;2023-02-10T08:41:47;12.17;;;5.80;;
16484;SDS011;8353;47.856;12.344;2023-02-10T08:44:17;8.90;;;5.70;;
16484;SDS011;8353;47.856;12.344;2023-02-10T08:46:48;7.10;;;4.67;;
16484;SDS011;8353;47.856;12.344;2023-02-10T08:49:18;7.93;;;5.40;;
16484;SDS011;8353;47.856;12.344;2023-02-10T08:51:52;5.77;;;4.20;;
16484;SDS011;8353;47.856;12.344;2023-02-10T08:54:23;8.50;;;5.43;;
16484;SDS011;8353;47.856;12.344;2023-02-10T08:56:54;12.03;;;5.63;;
16484;SDS011;8353;47.856;12.344;2023-02-10T08:59:25;11.00;;;5.57;;
16484;SDS011;8353;47.856;12.344;2023-02-10T09:01:56;9.80;;;4.70;;
16484;SDS011;8353;47.856;12.344;2023-02-10T09:04:27;5.60;;;4.13;;
16484;SDS011;8353;47.856;12.344;2023-02-10T09:06:59;9.53;;;5.53;;
16484;SDS011;8353;47.856;12.344;2023-02-10T09:09:29;8.43;;;5.47;;
16484;SDS011;8353;47.856;12.344;2023-02-10T09:12:00;11.90;;;5.97;;
16484;SDS011;8353;47.856;12.344;2023-02-10T09:14:31;14.57;;;6.50;;
16484;SDS011;8353;47.856;12.344;2023-02-10T09:17:02;10.23;;;5.53;;
16484;SDS011;8353;47.856;12.344;2023-02-10T09:19:33;10.37;;;6.33;;
16484;SDS011;8353;47.856;12.344;2023-02-10T09:22:05;14.53;;;6.53;;
16484;SDS011;8353;47.856;12.344;2023-02-10T09:24:36;10.63;;;6.10;;
16484;SDS011;8353;47.856;12.344;2023-02-10T09:27:07;13.23;;;7.83;;
16484;SDS011;8353;47.856;12.344;2023-02-10T09:29:38;10.80;;;6.73;;
16484;SDS011;8353;47.856;12.344;2023-02-10T09:32:08;10.70;;;7.53;;
16484;SDS011;8353;47.856;12.344;2023-02-10T09:34:39;16.70;;;8.03;;
16484;SDS011;8353;47.856;12.344;2023-02-10T09:37:11;9.67;;;6.20;;
16484;SDS011;8353;47.856;12.344;2023-02-10T09:39:42;13.63;;;8.30;;
16484;SDS011;8353;47.856;12.344;2023-02-10T09:42:14;16.13;;;9.50;;
16484;SDS011;8353;47.856;12.344;2023-02-10T09:44:58;10.87;;;7.10;;
16484;SDS011;8353;47.856;12.344;2023-02-10T09:47:43;13.93;;;9.20;;
16484;SDS011;8353;47.856;12.344;2023-02-10T09:50:25;9.23;;;7.70;;
16484;SDS011;8353;47.856;12.344;2023-02-10T09:53:07;10.57;;;7.53;;
16484;SDS011;8353;47.856;12.344;2023-02-10T09:55:43;9.87;;;6.30;;
16484;SDS011;8353;47.856;12.344;2023-02-10T09:58:19;15.63;;;9.60;;
16484;SDS011;8353;47.856;12.344;2023-02-10T10:00:56;16.87;;;10.83;;
16484;SDS011;8353;47.856;12.344;2023-02-10T10:03:38;10.93;;;7.67;;
16484;SDS011;8353;47.856;12.344;2023-02-10T10:06:14;14.70;;;10.90;;
16484;SDS011;8353;47.856;12.344;2023-02-10T10:08:54;12.63;;;9.13;;
16484;SDS011;8353;47.856;12.344;2023-02-10T10:11:33;12.33;;;7.90;;
16484;SDS011;8353;47.856;12.344;2023-02-10T10:14:15;13.63;;;8.87;;
16484;SDS011;8353;47.856;12.344;2023-02-10T10:19:45;15.37;;;9.17;;
16484;SDS011;8353;47.856;12.344;2023-02-10T10:22:32;15.03;;;10.60;;
16484;SDS011;8353;47.856;12.344;2023-02-10T10:25:17;13.30;;;8.80;;
16484;SDS011;8353;47.856;12.344;2023-02-10T10:28:00;12.27;;;8.43;;
16484;SDS011;8353;47.856;12.344;2023-02-10T10:30:43;10.90;;;7.67;;
16484;SDS011;8353;47.856;12.344;2023-02-10T10:33:22;12.43;;;9.10;;
16484;SDS011;8353;47.856;12.344;2023-02-10T10:35:54;14.07;;;10.00;;
16484;SDS011;8353;47.856;12.344;2023-02-10T10:38:31;11.27;;;8.20;;
16484;SDS011;8353;47.856;12.344;2023-02-10T10:41:05;9.70;;;7.50;;
16484;SDS011;8353;47.856;12.344;2023-02-10T10:43:42;17.70;;;11.53;;
16484;SDS011;8353;47.856;12.344;2023-02-10T10:46:18;16.63;;;11.70;;
16484;SDS011;8353;47.856;12.344;2023-02-10T10:48:53;11.70;;;9.23;;
16484;SDS011;8353;47.856;12.344;2023-02-10T10:51:24;14.27;;;9.90;;
16484;SDS011;8353;47.856;12.344;2023-02-10T10:53:56;11.23;;;7.90;;
16484;SDS011;8353;47.856;12.344;2023-02-10T10:56:30;17.87;;;12.73;;
16484;SDS011;8353;47.856;12.344;2023-02-10T10:59:10;12.50;;;8.47;;
16484;SDS011;8353;47.856;12.344;2023-02-10T11:01:43;15.30;;;10.50;;
16484;SDS011;8353;47.856;12.344;2023-02-10T11:04:16;11.97;;;9.40;;
16484;SDS011;8353;47.856;12.344;2023-02-10T11:06:49;13.50;;;9.90;;
16484;SDS011;8353;47.856;12.344;2023-02-10T11:09:23;14.17;;;9.33;;
16484;SDS011;8353;47.856;12.344;2023-02-10T11:12:02;16.87;;;11.97;;
16484;SDS011;8353;47.856;12.344;2023-02-10T11:14:36;18.00;;;12.03;;
16484;SDS011;8353;47.856;12.344;2023-02-10T11:17:17;16.00;;;11.17;;
16484;SDS011;8353;47.856;12.344;2023-02-10T11:19:53;14.03;;;10.27;;
16484;SDS011;8353;47.856;12.344;2023-02-10T11:22:26;12.50;;;9.13;;
16484;SDS011;8353;47.856;12.344;2023-02-10T11:25:00;15.70;;;11.27;;
16484;SDS011;8353;47.856;12.344;2023-02-10T11:27:36;15.50;;;10.43;;
16484;SDS011;8353;47.856;12.344;2023-02-10T11:30:22;16.57;;;11.77;;
16484;SDS011;8353;47.856;12.344;2023-02-10T11:32:54;18.03;;;11.97;;
16484;SDS011;8353;47.856;12.344;2023-02-10T11:35:25;17.40;;;12.27;;
16484;SDS011;8353;47.856;12.344;2023-02-10T11:37:58;12.10;;;8.37;;
16484;SDS011;8353;47.856;12.344;2023-02-10T11:40:38;18.33;;;10.77;;
16484;SDS011;8353;47.856;12.344;2023-02-10T11:43:20;17.97;;;11.57;;
16484;SDS011;8353;47.856;12.344;2023-02-10T11:45:58;15.13;;;10.97;;
16484;SDS011;8353;47.856;12.344;2023-02-10T11:48:30;17.07;;;12.00;;
16484;SDS011;8353;47.856;12.344;2023-02-10T11:51:02;11.87;;;8.90;;
16484;SDS011;8353;47.856;12.344;2023-02-10T11:53:36;13.83;;;9.77;;
16484;SDS011;8353;47.856;12.344;2023-02-10T11:56:11;12.73;;;8.87;;
16484;SDS011;8353;47.856;12.344;2023-02-10T11:58:50;14.07;;;10.27;;
16484;SDS011;8353;47.856;12.344;2023-02-10T12:01:30;11.70;;;9.30;;
16484;SDS011;8353;47.856;12.344;2023-02-10T12:04:15;9.17;;;7.23;;
16484;SDS011;8353;47.856;12.344;2023-02-10T12:06:58;10.23;;;6.70;;
16484;SDS011;8353;47.856;12.344;2023-02-10T12:09:35;13.27;;;9.03;;
16484;SDS011;8353;47.856;12.344;2023-02-10T12:12:13;10.47;;;7.17;;
16484;SDS011;8353;47.856;12.344;2023-02-10T12:14:53;15.07;;;10.70;;
16484;SDS011;8353;47.856;12.344;2023-02-10T12:17:35;13.60;;;9.73;;
16484;SDS011;8353;47.856;12.344;2023-02-10T12:20:18;13.43;;;9.10;;
16484;SDS011;8353;47.856;12.344;2023-02-10T12:23:16;12.23;;;8.00;;
16484;SDS011;8353;47.856;12.344;2023-02-10T12:25:56;8.80;;;6.10;;
16484;SDS011;8353;47.856;12.344;2023-02-10T12:28:38;8.60;;;6.40;;
16484;SDS011;8353;47.856;12.344;2023-02-10T12:31:20;16.27;;;10.23;;
16484;SDS011;8353;47.856;12.344;2023-02-10T12:34:04;11.60;;;8.50;;
16484;SDS011;8353;47.856;12.344;2023-02-10T12:36:49;11.33;;;8.67;;
16484;SDS011;8353;47.856;12.344;2023-02-10T12:39:31;14.57;;;9.40;;
16484;SDS011;8353;47.856;12.344;2023-02-10T12:42:13;10.47;;;8.47;;
16484;SDS011;8353;47.856;12.344;2023-02-10T12:44:57;15.03;;;9.50;;
16484;SDS011;8353;47.856;12.344;2023-02-10T12:47:38;12.60;;;9.20;;
16484;SDS011;8353;47.856;12.344;2023-02-10T12:50:23;7.17;;;5.70;;
16484;SDS011;8353;47.856;12.344;2023-02-10T12:53:03;12.00;;;9.20;;
16484;SDS011;8353;47.856;12.344;2023-02-10T12:55:41;9.47;;;8.03;;
16484;SDS011;8353;47.856;12.344;2023-02-10T12:58:19;11.07;;;8.03;;
16484;SDS011;8353;47.856;12.344;2023-02-10T13:00:53;8.07;;;6.57;;
16484;SDS011;8353;47.856;12.344;2023-02-10T13:03:37;11.50;;;8.50;;
16484;SDS011;8353;47.856;12.344;2023-02-10T13:06:17;14.03;;;9.40;;
16484;SDS011;8353;47.856;12.344;2023-02-10T13:08:53;7.73;;;6.33;;
16484;SDS011;8353;47.856;12.344;2023-02-10T13:11:30;9.07;;;7.37;;
16484;SDS011;8353;47.856;12.344;2023-02-10T13:14:09;12.73;;;8.90;;
16484;SDS011;8353;47.856;12.344;2023-02-10T13:16:46;8.30;;;6.37;;
16484;SDS011;8353;47.856;12.344;2023-02-10T13:19:27;7.90;;;5.80;;
16484;SDS011;8353;47.856;12.344;2023-02-10T13:22:08;12.03;;;8.23;;
16484;SDS011;8353;47.856;12.344;2023-02-10T13:24:46;10.03;;;6.87;;
16484;SDS011;8353;47.856;12.344;2023-02-10T13:27:29;10.13;;;7.07;;
16484;SDS011;8353;47.856;12.344;2023-02-10T13:30:13;8.43;;;6.30;;
16484;SDS011;8353;47.856;12.344;2023-02-10T13:33:09;8.13;;;6.20;;
16484;SDS011;8353;47.856;12.344;2023-02-10T13:35:47;11.40;;;6.73;;
16484;SDS011;8353;47.856;12.344;2023-02-10T13:38:19;14.97;;;9.40;;
16484;SDS011;8353;47.856;12.344;2023-02-10T13:40:55;7.10;;;5.30;;
16484;SDS011;8353;47.856;12.344;2023-02-10T13:43:53;15.87;;;8.60;;
16484;SDS011;8353;47.856;12.344;2023-02-10T13:46:27;8.37;;;6.67;;
16484;SDS011;8353;47.856;12.344;2023-02-10T13:49:00;9.00;;;6.60;;
16484;SDS011;8353;47.856;12.344;2023-02-10T13:51:34;8.70;;;5.63;;
16484;SDS011;8353;47.856;12.344;2023-02-10T13:54:11;6.97;;;5.47;;
16484;SDS011;8353;47.856;12.344;2023-02-10T13:56:55;8.07;;;5.50;;
16484;SDS011;8353;47.856;12.344;2023-02-10T13:59:28;8.77;;;7.30;;
16484;SDS011;8353;47.856;12.344;2023-02-10T14:02:15;14.07;;;9.23;;
16484;SDS011;8353;47.856;12.344;2023-02-10T14:04:50;10.87;;;6.37;;
16484;SDS011;8353;47.856;12.344;2023-02-10T14:07:34;9.87;;;6.70;;
16484;SDS011;8353;47.856;12.344;2023-02-10T14:10:30;6.37;;;5.20;;
16484;SDS011;8353;47.856;12.344;2023-02-10T14:13:04;11.13;;;8.13;;
16484;SDS011;8353;47.856;12.344;2023-02-10T14:15:53;7.60;;;5.97;;
16484;SDS011;8353;47.856;12.344;2023-02-10T14:18:26;6.97;;;5.23;;
16484;SDS011;8353;47.856;12.344;2023-02-10T14:21:00;6.37;;;5.20;;
16484;SDS011;8353;47.856;12.344;2023-02-10T14:23:34;9.70;;;6.77;;
16484;SDS011;8353;47.856;12.344;2023-02-10T14:26:07;8.50;;;6.57;;
16484;SDS011;8353;47.856;12.344;2023-02-10T14:28:46;11.60;;;6.53;;
16484;SDS011;8353;47.856;12.344;2023-02-10T14:31:19;12.93;;;8.50;;
16484;SDS011;8353;47.856;12.344;2023-02-10T14:33:54;7.47;;;5.63;;
16484;SDS011;8353;47.856;12.344;2023-02-10T14:36:26;6.97;;;5.47;;
16484;SDS011;8353;47.856;12.344;2023-02-10T14:38:59;10.37;;;7.33;;
16484;SDS011;8353;47.856;12.344;2023-02-10T14:41:32;10.27;;;7.43;;
16484;SDS011;8353;47.856;12.344;2023-02-10T14:44:03;7.17;;;5.27;;
16484;SDS011;8353;47.856;12.344;2023-02-10T14:46:33;10.27;;;7.00;;
16484;SDS011;8353;47.856;12.344;2023-02-10T14:49:08;8.07;;;6.57;;
16484;SDS011;8353;47.856;12.344;2023-02-10T14:51:42;6.93;;;4.40;;
16484;SDS011;8353;47.856;12.344;2023-02-10T14:54:16;9.67;;;6.13;;
16484;SDS011;8353;47.856;12.344;2023-02-10T14:56:49;8.00;;;5.93;;
16484;SDS011;8353;47.856;12.344;2023-02-10T14:59:22;5.30;;;4.47;;
16484;SDS011;8353;47.856;12.344;2023-02-10T15:01:54;5.37;;;4.33;;
16484;SDS011;8353;47.856;12.344;2023-02-10T15:04:27;6.90;;;4.90;;
16484;SDS011;8353;47.856;12.344;2023-02-10T15:06:59;4.20;;;3.80;;
16484;SDS011;8353;47.856;12.344;2023-02-10T15:09:32;6.67;;;4.83;;
16484;SDS011;8353;47.856;12.344;2023-02-10T15:12:06;6.77;;;5.53;;
16484;SDS011;8353;47.856;12.344;2023-02-10T15:14:44;5.90;;;4.80;;
16484;SDS011;8353;47.856;12.344;2023-02-10T15:17:20;9.50;;;7.03;;
16484;SDS011;8353;47.856;12.344;2023-02-10T15:19:54;5.10;;;4.40;;
16484;SDS011;8353;47.856;12.344;2023-02-10T15:22:31;7.87;;;6.40;;
16484;SDS011;8353;47.856;12.344;2023-02-10T15:28:17;8.37;;;6.43;;
16484;SDS011;8353;47.856;12.344;2023-02-10T15:30:54;15.07;;;10.03;;
16484;SDS011;8353;47.856;12.344;2023-02-10T15:33:28;12.27;;;9.50;;
16484;SDS011;8353;47.856;12.344;2023-02-10T15:36:12;7.77;;;4.73;;